Time;durP1;ratioP1;P1;durP2;ratioP2;P2;SDS_P1;SDS_P2;PMS_P1;PMS_P2;Temp;Humidity;BMP_temperature;BMP_pressure;BME280_temperature;BME280_humidity;BME280_pressure;Samples;Min_cycle;Max_cycle;Signal;HPM_P1;HPM_P2
2021/03/28 00:00:53;;;;;;;30.88;10.40;;;-0.40;99.90;;;;;;5078558;28;20154;-85
2021/03/28 00:03:42;;;;;;;44.55;10.80;;;-0.30;99.90;;;;;;5078153;28;20052;-85
2021/03/28 00:06:32;;;;;;;60.42;11.77;;;-0.30;99.90;;;;;;5078555;28;20044;-85
2021/03/28 00:09:10;;;;;;;81.93;12.02;;;-0.30;99.90;;;;;;5079155;28;20127;-85
2021/03/28 00:11:55;;;;;;;46.88;11.38;;;-0.40;99.90;;;;;;5078130;28;20152;-85
2021/03/28 00:14:37;;;;;;;62.72;11.48;;;-0.40;99.90;;;;;;5077126;28;20055;-85
2021/03/28 00:17:09;;;;;;;41.83;11.25;;;-0.50;99.90;;;;;;5076624;28;20305;-85
2021/03/28 00:19:37;;;;;;;23.23;9.30;;;-0.60;99.90;;;;;;5076551;28;20041;-85
2021/03/28 00:22:16;;;;;;;30.77;11.20;;;-0.50;99.90;;;;;;5076575;28;20214;-85
2021/03/28 00:25:04;;;;;;;20.73;9.98;;;-0.40;99.90;;;;;;5078249;28;20048;-85
2021/03/28 00:27:40;;;;;;;27.98;9.63;;;-0.40;99.90;;;;;;5076190;28;20143;-85
2021/03/28 00:30:32;;;;;;;21.42;8.77;;;-0.40;99.90;;;;;;5077086;28;20142;-85
2021/03/28 00:33:26;;;;;;;24.92;8.88;;;-0.50;99.90;;;;;;5070958;28;20092;-85
2021/03/28 00:35:58;;;;;;;24.52;9.10;;;-0.50;99.90;;;;;;5074960;28;20049;-85
2021/03/28 00:38:43;;;;;;;40.78;10.10;;;-0.60;99.90;;;;;;5076853;28;20063;-85
2021/03/28 00:41:41;;;;;;;26.60;9.63;;;-0.70;99.90;;;;;;5076744;28;20493;-85
2021/03/28 00:44:18;;;;;;;17.85;8.77;;;-0.80;99.90;;;;;;5076748;28;20102;-85
2021/03/28 00:46:47;;;;;;;30.48;8.93;;;-0.70;99.90;;;;;;5075484;28;20040;-85
2021/03/28 00:49:24;;;;;;;20.25;8.70;;;-0.70;99.90;;;;;;5076455;28;20413;-85
2021/03/28 00:51:56;;;;;;;17.92;8.00;;;-0.80;99.90;;;;;;5077027;28;20091;-85
2021/03/28 00:54:41;;;;;;;15.40;7.95;;;-0.70;99.90;;;;;;5075070;28;20473;-85
2021/03/28 00:57:18;;;;;;;18.70;7.65;;;-0.70;99.90;;;;;;5074595;28;20076;-85
2021/03/28 00:59:54;;;;;;;41.63;9.52;;;-0.80;99.90;;;;;;5074917;28;20102;-85
2021/03/28 01:02:32;;;;;;;13.50;7.13;;;-0.80;99.90;;;;;;5074801;28;20087;-85
2021/03/28 01:05:01;;;;;;;13.27;7.53;;;-0.80;99.90;;;;;;5076161;28;20041;-85
2021/03/28 01:07:33;;;;;;;17.95;7.70;;;-0.90;99.90;;;;;;5074562;28;20118;-85
2021/03/28 01:10:24;;;;;;;15.57;7.78;;;-1.00;99.90;;;;;;5074344;28;20056;-85
2021/03/28 01:13:28;;;;;;;20.08;8.07;;;-1.00;99.90;;;;;;5073861;28;20048;-85
2021/03/28 01:16:16;;;;;;;19.08;8.02;;;-0.90;99.90;;;;;;5073892;28;20048;-85
2021/03/28 01:19:16;;;;;;;27.55;8.82;;;-0.90;99.90;;;;;;5073962;28;20083;-85
2021/03/28 01:22:11;;;;;;;20.63;8.38;;;-1.00;99.90;;;;;;5075617;28;20508;-85
2021/03/28 01:24:49;;;;;;;17.60;8.25;;;-1.00;99.90;;;;;;5073908;28;20053;-85
2021/03/28 01:27:32;;;;;;;37.83;9.68;;;-0.90;99.90;;;;;;5074104;28;20045;-85
2021/03/28 01:29:58;;;;;;;24.97;9.67;;;-1.00;99.90;;;;;;5075890;28;20052;-85
2021/03/28 01:32:40;;;;;;;19.98;8.13;;;-1.20;99.90;;;;;;5073888;28;20365;-85
2021/03/28 01:35:15;;;;;;;24.00;9.35;;;-1.10;99.90;;;;;;5075539;28;20078;-85
2021/03/28 01:37:50;;;;;;;31.02;9.85;;;-1.10;99.90;;;;;;5074246;28;20447;-85
2021/03/28 01:40:39;;;;;;;35.83;10.77;;;-1.10;99.90;;;;;;5073313;28;20135;-85
2021/03/28 01:43:29;;;;;;;37.55;10.00;;;-1.20;99.90;;;;;;5073952;28;20505;-85
2021/03/28 01:46:05;;;;;;;50.95;11.38;;;-1.20;99.90;;;;;;5075065;28;20127;-84
2021/03/28 01:48:35;;;;;;;33.88;10.48;;;-1.20;99.90;;;;;;5074495;28;20048;-85
2021/03/28 01:51:20;;;;;;;18.52;8.55;;;-1.30;99.90;;;;;;5075319;28;20055;-85
2021/03/28 01:54:11;;;;;;;54.97;10.88;;;-1.30;99.90;;;;;;5073873;28;20076;-84
2021/03/28 01:57:02;;;;;;;29.65;9.48;;;-1.40;99.90;;;;;;5073726;28;20527;-85
2021/03/28 01:59:34;;;;;;;22.15;8.82;;;-1.50;99.90;;;;;;5073515;28;20047;-85
2021/03/28 02:02:32;;;;;;;25.35;9.38;;;-1.50;99.90;;;;;;5076150;28;20136;-84
2021/03/28 02:05:14;;;;;;;17.63;8.65;;;-1.50;99.90;;;;;;5078217;28;20053;-85
2021/03/28 02:08:07;;;;;;;19.52;9.45;;;-1.50;99.90;;;;;;5077873;28;20051;-85
2021/03/28 02:10:44;;;;;;;22.15;8.23;;;-1.50;99.90;;;;;;5076315;28;20083;-84
2021/03/28 02:13:36;;;;;;;17.15;8.65;;;-1.50;99.90;;;;;;5075981;28;20083;-85
2021/03/28 02:16:11;;;;;;;27.27;9.18;;;-1.50;99.90;;;;;;5075391;28;20044;-85
2021/03/28 02:18:43;;;;;;;34.90;10.13;;;-1.50;99.90;;;;;;5075091;28;20127;-84
2021/03/28 02:21:21;;;;;;;32.10;10.95;;;-1.50;99.90;;;;;;5074690;28;20083;-85
2021/03/28 02:24:09;;;;;;;35.17;10.82;;;-1.50;99.90;;;;;;5076854;28;20055;-85
2021/03/28 02:26:47;;;;;;;51.55;12.40;;;-1.40;99.90;;;;;;5076674;28;20044;-85
2021/03/28 02:29:25;;;;;;;33.83;12.32;;;-1.30;99.90;;;;;;5076342;28;20072;-84
2021/03/28 02:32:07;;;;;;;39.17;12.60;;;-1.30;99.90;;;;;;5075689;28;20095;-84
2021/03/28 02:34:43;;;;;;;45.72;12.70;;;-1.20;99.90;;;;;;5075747;28;20489;-84
2021/03/28 02:37:19;;;;;;;58.72;13.38;;;-1.30;99.90;;;;;;5075036;28;20136;-85
2021/03/28 02:40:14;;;;;;;49.58;13.40;;;-1.30;99.90;;;;;;5073704;28;20091;-84
2021/03/28 02:42:59;;;;;;;70.63;14.30;;;-1.30;99.90;;;;;;5073946;28;20045;-84
2021/03/28 02:45:30;;;;;;;40.28;12.38;;;-1.40;99.90;;;;;;5073606;28;20095;-84
2021/03/28 02:48:22;;;;;;;50.95;13.85;;;-1.50;99.90;;;;;;5074659;28;20075;-84
2021/03/28 02:51:23;;;;;;;50.47;13.07;;;-1.50;99.90;;;;;;5072883;28;20045;-84
2021/03/28 02:54:30;;;;;;;31.40;11.90;;;-1.40;99.90;;;;;;5073572;28;20110;-84
2021/03/28 02:57:07;;;;;;;40.55;12.55;;;-1.40;99.90;;;;;;5073163;28;20048;-84
2021/03/28 02:59:55;;;;;;;36.17;11.55;;;-1.40;99.90;;;;;;5073025;28;20079;-85
2021/03/28 03:03:00;;;;;;;38.88;12.20;;;-1.30;99.90;;;;;;5077093;28;20136;-84
2021/03/28 03:05:39;;;;;;;43.67;13.18;;;-1.20;99.90;;;;;;5076960;28;20076;-84
2021/03/28 03:08:29;;;;;;;34.80;11.55;;;-1.20;99.90;;;;;;5076686;28;20045;-84
2021/03/28 03:10:58;;;;;;;48.97;12.93;;;-1.10;99.90;;;;;;5077226;28;20402;-84
2021/03/28 03:13:46;;;;;;;45.03;13.57;;;-1.10;99.90;;;;;;5077761;28;20087;-84
2021/03/28 03:16:26;;;;;;;38.58;13.25;;;-1.00;99.90;;;;;;5077823;28;20056;-85
2021/03/28 03:19:17;;;;;;;45.65;13.45;;;-0.90;99.90;;;;;;5076920;28;20063;-84
2021/03/28 03:22:21;;;;;;;43.95;13.32;;;-0.90;99.90;;;;;;5076137;28;20104;-84
2021/03/28 03:25:09;;;;;;;38.90;11.65;;;-1.00;99.90;;;;;;5077767;28;20083;-84
2021/03/28 03:28:01;;;;;;;34.00;12.23;;;-0.80;99.90;;;;;;5076329;28;20048;-84
2021/03/28 03:30:32;;;;;;;48.67;13.98;;;-0.80;99.90;;;;;;5075999;28;20060;-84
2021/03/28 03:33:14;;;;;;;41.83;12.57;;;-0.70;99.90;;;;;;5075903;28;20095;-84
2021/03/28 03:36:10;;;;;;;30.65;11.55;;;-0.70;99.90;;;;;;5076413;28;20514;-84
2021/03/28 03:38:42;;;;;;;34.53;11.88;;;-0.70;99.90;;;;;;5077135;28;20508;-84
2021/03/28 03:41:37;;;;;;;35.75;11.85;;;-0.60;99.90;;;;;;5076019;28;20497;-84
2021/03/28 03:44:13;;;;;;;38.35;12.23;;;-0.60;99.90;;;;;;5075806;28;20052;-84
2021/03/28 03:46:45;;;;;;;34.83;12.88;;;-0.50;99.90;;;;;;5075792;28;20049;-84
2021/03/28 03:49:36;;;;;;;40.13;14.10;;;-0.60;99.90;;;;;;5075566;28;20132;-84
2021/03/28 03:52:29;;;;;;;38.63;12.10;;;-0.50;99.90;;;;;;5076310;28;20143;-84
2021/03/28 03:55:19;;;;;;;38.40;13.80;;;-0.50;99.90;;;;;;5078711;28;20052;-84
2021/03/28 03:57:53;;;;;;;38.03;12.57;;;-0.60;99.90;;;;;;5076021;28;20049;-84
2021/03/28 04:00:22;;;;;;;46.05;13.75;;;-0.50;99.90;;;;;;5077392;28;20079;-84
2021/03/28 04:03:13;;;;;;;43.55;13.82;;;-0.50;99.90;;;;;;5077251;28;20400;-84
2021/03/28 04:06:05;;;;;;;31.90;12.30;;;-0.50;99.90;;;;;;5075826;28;20493;-84
2021/03/28 04:08:43;;;;;;;24.45;11.35;;;-0.40;99.90;;;;;;5075373;28;20131;-84
2021/03/28 04:11:40;;;;;;;36.72;13.00;;;-0.40;99.90;;;;;;5076453;28;20071;-84
2021/03/28 04:14:15;;;;;;;21.35;10.48;;;-0.40;99.90;;;;;;5076465;28;20088;-84
2021/03/28 04:17:26;;;;;;;28.95;10.68;;;-0.40;99.90;;;;;;5075179;28;20053;-84
2021/03/28 04:20:12;;;;;;;22.60;8.95;;;-0.60;99.90;;;;;;5081899;28;20509;-85
2021/03/28 04:23:03;;;;;;;20.48;8.85;;;-0.70;99.90;;;;;;5078694;28;20123;-84
2021/03/28 04:26:00;;;;;;;17.42;8.38;;;-0.80;99.90;;;;;;5078306;28;20076;-84
2021/03/28 04:28:26;;;;;;;33.17;9.73;;;-0.90;99.90;;;;;;5078077;28;20084;-84
2021/03/28 04:30:55;;;;;;;24.75;8.55;;;-1.10;99.90;;;;;;5077925;28;20084;-84
2021/03/28 04:33:25;;;;;;;19.05;9.05;;;-1.10;99.90;;;;;;5078027;28;20079;-85
2021/03/28 04:36:28;;;;;;;12.95;8.20;;;-1.10;99.90;;;;;;5077881;28;20103;-84
2021/03/28 04:39:04;;;;;;;17.83;8.23;;;-1.20;99.90;;;;;;5073498;28;20058;-84
2021/03/28 04:42:08;;;;;;;24.25;9.23;;;-1.30;99.90;;;;;;5078284;28;20489;-84
2021/03/28 04:44:59;;;;;;;16.55;8.00;;;-1.30;99.90;;;;;;5078508;28;20044;-84
2021/03/28 04:47:53;;;;;;;18.08;8.90;;;-1.20;99.90;;;;;;5076936;28;20080;-84
2021/03/28 04:50:34;;;;;;;23.63;9.38;;;-1.10;99.90;;;;;;5076014;28;20075;-84
2021/03/28 04:53:19;;;;;;;15.65;8.52;;;-1.20;99.90;;;;;;5077520;28;20091;-84
2021/03/28 04:56:31;;;;;;;17.63;8.23;;;-1.10;99.90;;;;;;5076192;28;20488;-84
2021/03/28 04:59:40;;;;;;;18.13;8.20;;;-1.10;99.90;;;;;;5076241;28;20131;-84
2021/03/28 05:02:48;;;;;;;23.67;9.52;;;-1.20;99.90;;;;;;5075794;28;20461;-84
2021/03/28 05:05:35;;;;;;;18.98;8.02;;;-1.30;99.90;;;;;;5076900;28;20123;-84
2021/03/28 05:08:22;;;;;;;21.95;9.00;;;-1.30;99.90;;;;;;5076938;28;20059;-84
2021/03/28 05:11:35;;;;;;;19.90;9.60;;;-1.40;99.90;;;;;;5075289;28;20052;-84
2021/03/28 05:14:21;;;;;;;23.55;10.75;;;-1.30;99.90;;;;;;5075710;28;20054;-84
2021/03/28 05:16:50;;;;;;;30.77;12.95;;;-1.20;99.90;;;;;;5074991;28;20053;-84
2021/03/28 05:19:45;;;;;;;31.70;13.80;;;-1.10;99.90;;;;;;5074693;28;20087;-84
2021/03/28 05:22:49;;;;;;;39.45;13.60;;;-1.00;99.90;;;;;;5074922;28;20056;-84
2021/03/28 05:25:44;;;;;;;40.10;13.00;;;-0.80;99.90;;;;;;5074238;28;20127;-84
2021/03/28 05:28:39;;;;;;;27.40;12.05;;;-0.80;99.90;;;;;;5075970;28;20045;-84
2021/03/28 05:31:11;;;;;;;32.80;13.57;;;-0.70;99.90;;;;;;5075895;28;20049;-83
2021/03/28 05:33:54;;;;;;;39.75;16.25;;;-0.50;99.90;;;;;;5075822;28;20060;-83
2021/03/28 05:36:43;;;;;;;;;;;-0.50;99.90;;;;;;5075200;28;20139;-83
2021/03/28 05:39:36;;;;;;;38.38;14.38;;;-0.50;99.90;;;;;;5063892;28;19943;-83
2021/03/28 05:42:10;;;;;;;;;;;-0.30;99.90;;;;;;5067587;28;20121;-83
2021/03/28 05:44:54;;;;;;;32.85;14.65;;;-0.30;99.90;;;;;;5065046;28;19927;-83
2021/03/28 05:47:50;;;;;;;54.78;18.55;;;-0.20;99.90;;;;;;5062240;28;20051;-83
2021/03/28 05:50:52;;;;;;;112.88;39.78;;;0.00;99.90;;;;;;5065716;28;20087;-84
2021/03/28 05:53:36;;;;;;;195.23;63.53;;;0.10;99.90;;;;;;5056103;28;20053;-84
2021/03/28 05:56:24;;;;;;;223.43;89.63;;;0.20;99.90;;;;;;5058149;28;20131;-83
2021/03/28 05:59:18;;;;;;;91.53;33.05;;;0.30;99.90;;;;;;5053960;28;20513;-83
2021/03/28 06:01:50;;;;;;;68.47;24.38;;;0.30;99.90;;;;;;5054122;28;20458;-83
2021/03/28 06:04:33;;;;;;;170.65;49.97;;;0.40;99.90;;;;;;5054037;28;20128;-83
2021/03/28 06:07:18;;;;;;;;;;;0.60;99.90;;;;;;5054391;28;20052;-83
2021/03/28 06:10:03;;;;;;;177.77;52.20;;;0.80;99.90;;;;;;5054188;28;19925;-83
2021/03/28 06:12:49;;;;;;;835.13;141.32;;;0.90;99.90;;;;;;5054054;28;20110;-83
2021/03/28 06:15:34;;;;;;;1999.90;837.97;;;1.00;99.90;;;;;;5053567;28;20132;-83
2021/03/28 06:18:31;;;;;;;184.93;47.28;;;2.40;99.90;;;;;;5054042;28;20045;-82
2021/03/28 06:21:13;;;;;;;89.22;30.45;;;2.90;99.90;;;;;;5053528;28;20486;-82
2021/03/28 06:23:42;;;;;;;72.53;30.42;;;2.60;99.90;;;;;;5053412;28;20045;-82
2021/03/28 06:26:37;;;;;;;75.45;31.70;;;2.60;99.90;;;;;;5053601;28;20041;-82
2021/03/28 06:29:12;;;;;;;69.32;32.75;;;2.70;99.90;;;;;;5053947;28;20049;-82
2021/03/28 06:32:07;;;;;;;63.95;29.50;;;2.60;99.90;;;;;;5054714;28;20494;-82
2021/03/28 06:35:11;;;;;;;65.03;28.83;;;2.50;99.90;;;;;;5054208;28;20135;-81
2021/03/28 06:38:09;;;;;;;60.63;30.45;;;2.70;99.90;;;;;;5060427;28;20044;-82
2021/03/28 06:40:45;;;;;;;55.40;30.67;;;2.50;99.90;;;;;;5059961;28;20495;-82
2021/03/28 06:43:14;;;;;;;46.50;25.63;;;2.70;99.90;;;;;;5055773;28;20131;-82
2021/03/28 06:45:53;;;;;;;40.22;24.65;;;2.80;99.90;;;;;;5055918;28;20071;-82
2021/03/28 06:48:31;;;;;;;89.78;63.35;;;3.10;99.90;;;;;;5055509;28;20076;-81
2021/03/28 06:51:25;;;;;;;79.15;37.33;;;3.50;99.90;;;;;;5057501;28;20108;-82
2021/03/28 06:54:23;;;;;;;295.70;108.30;;;3.80;99.90;;;;;;5056327;28;20575;-82
2021/03/28 06:56:49;;;;;;;62.97;30.40;;;3.70;99.90;;;;;;5057299;28;20426;-82
2021/03/28 06:59:33;;;;;;;40.38;21.35;;;3.90;99.90;;;;;;5055580;28;20132;-81
2021/03/28 07:02:09;;;;;;;37.15;18.77;;;4.00;99.90;;;;;;5054032;28;20468;-81
2021/03/28 07:05:02;;;;;;;46.30;26.40;;;4.10;99.90;;;;;;5052798;28;20132;-81
2021/03/28 07:08:08;;;;;;;26.70;17.35;;;3.70;99.90;;;;;;5053497;28;20541;-81
2021/03/28 07:11:04;;;;;;;42.88;18.92;;;3.60;99.90;;;;;;5042062;28;20056;-81
2021/03/28 07:13:55;;;;;;;37.10;23.38;;;3.70;99.90;;;;;;5052388;28;20049;-81
2021/03/28 07:16:40;;;;;;;54.70;29.02;;;3.90;99.90;;;;;;5052708;28;20071;-81
2021/03/28 07:19:38;;;;;;;33.05;19.00;;;4.10;99.90;;;;;;5052945;28;20118;-81
2021/03/28 07:22:27;;;;;;;28.60;15.95;;;4.40;99.90;;;;;;5052237;28;20053;-81
2021/03/28 07:25:28;;;;;;;29.08;16.58;;;4.60;99.90;;;;;;5053285;28;20079;-81
2021/03/28 07:28:36;;;;;;;24.13;14.35;;;4.70;99.90;;;;;;5054060;28;20220;-81
2021/03/28 07:31:42;;;;;;;24.73;15.13;;;4.80;99.90;;;;;;5042834;28;20131;-81
2021/03/28 07:34:50;;;;;;;29.67;15.95;;;4.80;99.90;;;;;;5053751;28;20442;-82
2021/03/28 07:37:35;;;;;;;20.92;12.07;;;4.80;99.90;;;;;;5053762;28;20045;-81
2021/03/28 07:40:19;;;;;;;21.73;12.45;;;4.70;99.90;;;;;;5052211;28;20505;-81
2021/03/28 07:43:21;;;;;;;19.65;12.82;;;4.40;99.90;;;;;;5053523;28;20077;-81
2021/03/28 07:46:26;;;;;;;21.05;11.73;;;4.30;99.90;;;;;;5052540;28;20132;-82
2021/03/28 07:49:06;;;;;;;22.83;13.70;;;4.10;99.90;;;;;;5056105;28;20041;-82
2021/03/28 07:51:48;;;;;;;27.88;14.27;;;3.80;99.90;;;;;;5056675;28;20080;-83
2021/03/28 07:54:52;;;;;;;31.17;15.35;;;3.60;99.90;;;;;;5066538;28;20060;-82
2021/03/28 07:57:39;;;;;;;62.38;33.00;;;3.90;99.90;;;;;;5056488;28;20095;-82
2021/03/28 08:00:24;;;;;;;38.75;20.80;;;3.80;99.90;;;;;;5063075;28;20094;-82
2021/03/28 08:03:05;;;;;;;44.20;23.35;;;3.80;99.90;;;;;;5076247;28;20087;-82
2021/03/28 08:06:16;;;;;;;86.53;44.47;;;4.00;99.90;;;;;;5075235;28;20083;-83
2021/03/28 08:09:00;;;;;;;58.22;31.35;;;4.30;99.90;;;;;;5075156;28;20040;-82
2021/03/28 08:11:55;;;;;;;21.40;10.82;;;4.60;99.90;;;;;;5076976;28;20048;-83
2021/03/28 08:14:47;;;;;;;24.67;11.15;;;5.00;99.90;;;;;;5075744;28;20068;-83
2021/03/28 08:17:20;;;;;;;16.47;10.30;;;5.20;99.90;;;;;;5076215;28;20140;-83
2021/03/28 08:20:05;;;;;;;20.60;7.55;;;5.40;99.90;;;;;;5076729;28;20052;-83
2021/03/28 08:23:09;;;;;;;11.27;7.28;;;5.50;99.90;;;;;;5076262;28;20135;-83
2021/03/28 08:26:12;;;;;;;13.85;6.70;;;5.40;99.90;;;;;;5077478;28;20044;-83
2021/03/28 08:28:45;;;;;;;10.55;6.68;;;5.40;99.90;;;;;;5076357;28;20048;-84
2021/03/28 08:31:41;;;;;;;11.45;6.47;;;5.40;99.90;;;;;;5076303;28;20095;-83
2021/03/28 08:34:48;;;;;;;14.20;7.68;;;5.60;99.90;;;;;;5076029;28;20044;-83
2021/03/28 08:37:42;;;;;;;11.65;6.25;;;5.70;99.90;;;;;;5076383;28;20072;-84
2021/03/28 08:40:39;;;;;;;10.40;5.88;;;6.00;99.90;;;;;;5075657;28;20102;-84
2021/03/28 08:43:35;;;;;;;10.73;5.90;;;6.30;99.90;;;;;;5075671;28;20079;-84
2021/03/28 08:46:27;;;;;;;10.00;5.28;;;6.60;99.90;;;;;;5075780;28;20484;-84
2021/03/28 08:49:23;;;;;;;9.80;4.60;;;7.10;99.90;;;;;;5075210;28;20094;-83
2021/03/28 08:52:10;;;;;;;8.40;3.83;;;7.30;99.90;;;;;;5075419;28;20083;-84
2021/03/28 08:54:57;;;;;;;8.57;4.13;;;7.50;99.90;;;;;;5075173;28;20052;-84
2021/03/28 08:57:54;;;;;;;7.22;4.10;;;8.00;99.90;;;;;;5075291;28;20062;-85
2021/03/28 09:01:02;;;;;;;6.28;3.20;;;8.60;99.90;;;;;;5078060;28;20132;-84
2021/03/28 09:03:40;;;;;;;11.02;2.90;;;10.70;99.90;;;;;;5097848;28;20059;-85
2021/03/28 09:06:15;;;;;;;6.60;2.70;;;13.50;99.90;;;;;;5098168;28;20048;-85
2021/03/28 09:09:05;;;;;;;8.05;2.95;;;14.00;99.90;;;;;;5086530;28;20070;-85
2021/03/28 09:11:59;;;;;;;8.80;2.60;;;14.90;99.90;;;;;;5079850;28;20080;-85
2021/03/28 09:14:41;;;;;;;7.55;2.60;;;15.80;99.90;;;;;;5080041;28;20060;-86
2021/03/28 09:17:23;;;;;;;4.18;2.33;;;15.80;93.00;;;;;;5078400;28;20459;-85
2021/03/28 09:20:08;;;;;;;3.92;2.15;;;15.50;94.00;;;;;;5080871;28;20507;-85
2021/03/28 09:22:48;;;;;;;5.93;2.35;;;16.00;95.10;;;;;;5080345;28;20104;-84
2021/03/28 09:25:54;;;;;;;7.90;2.65;;;16.40;90.70;;;;;;5080517;28;20105;-86
2021/03/28 09:28:43;;;;;;;4.18;2.33;;;15.70;90.80;;;;;;5081898;28;20076;-85
2021/03/28 09:31:28;;;;;;;7.07;2.38;;;15.60;90.30;;;;;;5084450;28;20102;-86
2021/03/28 09:34:00;;;;;;;8.73;2.47;;;15.20;90.90;;;;;;5084040;28;20060;-86
2021/03/28 09:36:59;;;;;;;5.18;2.70;;;14.90;94.10;;;;;;5082256;28;20052;-86
2021/03/28 09:40:08;;;;;;;6.00;2.30;;;14.90;95.60;;;;;;5076650;28;20080;-86
2021/03/28 09:43:06;;;;;;;8.23;3.83;;;14.10;96.30;;;;;;5075363;28;20083;-85
2021/03/28 09:45:46;;;;;;;5.35;2.55;;;15.10;96.90;;;;;;5075734;28;20125;-85
2021/03/28 09:48:21;;;;;;;6.97;2.45;;;15.80;92.80;;;;;;5075148;28;20044;-85
2021/03/28 09:50:56;;;;;;;5.40;2.53;;;15.70;89.30;;;;;;5075241;28;20052;-85
2021/03/28 09:53:28;;;;;;;5.65;2.25;;;15.40;89.30;;;;;;5075919;28;20135;-85
2021/03/28 09:56:27;;;;;;;5.13;2.40;;;15.50;91.70;;;;;;5075134;28;20487;-84
2021/03/28 09:59:09;;;;;;;7.15;2.65;;;16.30;86.50;;;;;;5074742;28;20049;-84
2021/03/28 10:01:58;;;;;;;5.72;2.42;;;17.10;83.10;;;;;;5074260;28;20507;-84
2021/03/28 10:04:52;;;;;;;6.35;2.70;;;18.50;75.10;;;;;;5075076;28;20105;-84
2021/03/28 10:07:27;;;;;;;9.18;2.63;;;19.10;77.80;;;;;;5074758;28;20143;-85
2021/03/28 10:10:12;;;;;;;6.25;2.33;;;18.60;69.60;;;;;;5074906;28;20068;-84
2021/03/28 10:12:43;;;;;;;7.75;2.10;;;18.20;69.90;;;;;;5075658;28;20048;-85
2021/03/28 10:15:20;;;;;;;8.85;2.65;;;17.50;72.30;;;;;;5074912;28;20052;-85
2021/03/28 10:18:16;;;;;;;5.60;2.35;;;16.70;74.30;;;;;;5075842;28;20398;-85
2021/03/28 10:21:21;;;;;;;6.70;2.08;;;16.40;80.50;;;;;;5075893;28;20127;-85
2021/03/28 10:24:01;;;;;;;6.93;2.00;;;16.60;76.80;;;;;;5074796;28;20132;-83
2021/03/28 10:26:54;;;;;;;4.78;1.80;;;16.80;75.00;;;;;;5074485;28;20420;-84
2021/03/28 10:29:52;;;;;;;4.95;2.10;;;17.40;77.20;;;;;;5074404;28;20060;-84
2021/03/28 10:32:27;;;;;;;6.00;2.40;;;17.70;72.60;;;;;;5075149;28;20474;-84
2021/03/28 10:35:20;;;;;;;7.95;2.47;;;17.20;75.20;;;;;;5073941;28;20048;-84
2021/03/28 10:38:26;;;;;;;6.65;2.28;;;17.30;74.40;;;;;;5073912;28;20059;-84
2021/03/28 10:40:58;;;;;;;6.03;1.77;;;18.30;72.70;;;;;;5063343;28;20049;-84
2021/03/28 10:43:53;;;;;;;3.97;2.35;;;18.10;70.70;;;;;;5074933;28;20570;-84
2021/03/28 10:46:32;;;;;;;5.85;2.25;;;18.00;72.50;;;;;;5073473;28;20084;-85
2021/03/28 10:49:35;;;;;;;8.32;2.17;;;17.90;68.90;;;;;;5074081;28;20044;-85
2021/03/28 10:52:17;;;;;;;4.82;2.05;;;17.80;71.30;;;;;;5075166;28;20049;-84
2021/03/28 10:55:30;;;;;;;6.10;2.58;;;18.40;68.20;;;;;;5074993;28;20437;-83
2021/03/28 10:58:18;;;;;;;6.32;2.22;;;18.90;64.00;;;;;;5074129;28;20102;-83
2021/03/28 11:01:00;;;;;;;4.03;1.70;;;18.90;66.10;;;;;;5073918;28;20048;-84
2021/03/28 11:04:10;;;;;;;7.38;2.13;;;20.60;64.80;;;;;;5074726;28;20106;-84
2021/03/28 11:07:15;;;;;;;2.63;1.70;;;22.00;59.50;;;;;;5074214;28;20052;-84
2021/03/28 11:09:51;;;;;;;3.27;1.70;;;22.20;56.70;;;;;;5074139;28;20098;-82
2021/03/28 11:12:40;;;;;;;8.25;2.10;;;21.70;54.60;;;;;;5073392;28;20041;-80
2021/03/28 11:15:30;;;;;;;6.70;1.42;;;21.70;54.90;;;;;;5073843;28;20050;-81
2021/03/28 11:18:26;;;;;;;5.18;1.80;;;21.50;55.30;;;;;;5074201;28;20044;-81
2021/03/28 11:21:19;;;;;;;6.45;2.30;;;22.20;54.70;;;;;;5066206;28;20041;-81
2021/03/28 11:23:58;;;;;;;2.45;1.60;;;22.20;55.60;;;;;;5077055;28;20087;-81
2021/03/28 11:26:34;;;;;;;3.00;1.75;;;22.20;55.20;;;;;;5076952;28;20059;-82
2021/03/28 11:29:24;;;;;;;3.08;1.52;;;22.20;54.20;;;;;;5077234;28;20154;-82
2021/03/28 11:32:07;;;;;;;5.15;1.95;;;21.50;53.70;;;;;;5077099;28;20110;-81
2021/03/28 11:35:04;;;;;;;3.70;1.55;;;20.30;55.70;;;;;;5078140;28;20566;-81
2021/03/28 11:37:39;;;;;;;3.95;1.50;;;19.20;56.60;;;;;;5076837;28;20629;-82
2021/03/28 11:40:25;;;;;;;5.97;2.30;;;18.40;58.80;;;;;;5076700;28;20060;-82
2021/03/28 11:43:22;;;;;;;4.38;1.92;;;17.80;61.70;;;;;;5076959;28;20498;-81
2021/03/28 11:46:10;;;;;;;8.38;3.05;;;17.50;60.70;;;;;;5077209;28;20048;-81
2021/03/28 11:48:41;;;;;;;9.82;3.45;;;17.20;61.80;;;;;;5077400;28;20079;-81
2021/03/28 11:51:18;;;;;;;6.32;2.20;;;16.40;63.70;;;;;;5076433;28;20076;-81
2021/03/28 11:53:48;;;;;;;3.90;1.48;;;15.60;68.40;;;;;;5078907;28;20049;-81
2021/03/28 11:57:05;;;;;;;3.72;1.58;;;15.30;69.50;;;;;;5076808;28;20064;-81
2021/03/28 11:59:53;;;;;;;6.10;2.38;;;15.90;69.00;;;;;;5063329;28;20052;-81
2021/03/28 12:02:28;;;;;;;4.72;1.90;;;16.30;68.80;;;;;;5077499;28;20446;-81
2021/03/28 12:04:57;;;;;;;3.67;1.58;;;15.90;67.90;;;;;;5077776;28;20054;-81
2021/03/28 12:07:28;;;;;;;4.57;1.58;;;14.90;69.70;;;;;;5076050;28;20041;-83
2021/03/28 12:10:00;;;;;;;4.05;2.00;;;14.10;71.80;;;;;;5076848;28;20532;-83
2021/03/28 12:12:45;;;;;;;5.68;2.05;;;13.80;75.00;;;;;;5077301;28;20131;-83
2021/03/28 12:15:42;;;;;;;4.93;1.83;;;13.70;81.00;;;;;;5076226;28;20128;-84
2021/03/28 12:18:24;;;;;;;5.88;1.90;;;13.60;80.90;;;;;;5076330;28;20052;-83
2021/03/28 12:21:01;;;;;;;13.23;3.03;;;13.70;81.00;;;;;;5076116;28;20560;-83
2021/03/28 12:23:49;;;;;;;6.97;2.88;;;13.70;82.30;;;;;;5077369;28;20044;-83
2021/03/28 12:26:36;;;;;;;5.47;2.05;;;13.70;85.20;;;;;;5075830;28;20132;-83
2021/03/28 12:29:33;;;;;;;5.55;2.42;;;14.10;86.00;;;;;;5075928;28;20080;-84
2021/03/28 12:32:21;;;;;;;5.65;2.22;;;14.50;84.60;;;;;;5078332;28;20121;-84
2021/03/28 12:35:14;;;;;;;5.18;1.65;;;15.00;81.90;;;;;;5076638;28;20135;-84
2021/03/28 12:37:45;;;;;;;4.32;1.70;;;15.90;77.40;;;;;;5075667;28;20127;-83
2021/03/28 12:40:36;;;;;;;5.15;2.20;;;16.20;77.00;;;;;;5076657;28;20055;-83
2021/03/28 12:43:19;;;;;;;4.35;1.88;;;16.70;76.60;;;;;;5076406;28;20128;-85
2021/03/28 12:45:45;;;;;;;2.65;1.38;;;16.80;69.40;;;;;;5076152;28;20123;-81
2021/03/28 12:48:29;;;;;;;3.30;1.33;;;16.60;68.10;;;;;;5075979;28;20493;-81
2021/03/28 12:50:56;;;;;;;3.13;1.20;;;16.30;64.80;;;;;;5077676;28;20131;-81
2021/03/28 12:53:28;;;;;;;2.28;0.95;;;15.90;66.00;;;;;;5076955;28;20106;-81
2021/03/28 12:55:55;;;;;;;2.30;1.17;;;16.00;65.40;;;;;;5077154;28;20064;-81
2021/03/28 12:58:40;;;;;;;9.63;1.80;;;15.50;64.60;;;;;;5078503;28;20584;-83
2021/03/28 13:01:27;;;;;;;1.92;1.15;;;14.70;66.80;;;;;;5077899;28;20080;-84
2021/03/28 13:04:06;;;;;;;4.65;1.33;;;14.50;69.10;;;;;;5076727;28;20136;-83
2021/03/28 13:06:44;;;;;;;2.90;1.05;;;14.20;70.70;;;;;;5075831;28;20547;-83
2021/03/28 13:09:10;;;;;;;3.47;1.65;;;14.50;75.40;;;;;;5077361;28;20049;-83
2021/03/28 13:12:08;;;;;;;6.85;1.33;;;15.30;68.50;;;;;;5075547;28;20446;-83
2021/03/28 13:14:39;;;;;;;3.63;1.15;;;15.50;68.60;;;;;;5071643;28;20048;-81
2021/03/28 13:17:18;;;;;;;3.10;1.40;;;15.20;69.30;;;;;;5076046;28;20056;-81
2021/03/28 13:19:46;;;;;;;3.72;1.30;;;15.10;68.40;;;;;;5077050;28;20135;-82
2021/03/28 13:22:40;;;;;;;9.73;1.30;;;15.10;69.30;;;;;;5076674;28;20476;-83
2021/03/28 13:25:29;;;;;;;4.50;1.38;;;15.10;70.00;;;;;;5076353;28;20083;-82
2021/03/28 13:27:58;;;;;;;3.35;1.35;;;15.50;68.10;;;;;;5076483;28;20075;-82
2021/03/28 13:30:37;;;;;;;5.13;1.40;;;15.50;67.40;;;;;;5077196;28;20109;-82
2021/03/28 13:33:27;;;;;;;6.63;2.42;;;15.00;66.80;;;;;;5076965;28;20483;-83
2021/03/28 13:35:56;;;;;;;2.90;1.30;;;14.80;69.20;;;;;;5076348;28;20083;-82
2021/03/28 13:38:33;;;;;;;2.65;1.75;;;14.70;70.20;;;;;;5076836;28;20048;-82
2021/03/28 13:41:04;;;;;;;3.40;1.08;;;14.90;69.70;;;;;;5075420;28;20052;-82
2021/03/28 13:43:35;;;;;;;4.68;1.00;;;14.80;69.60;;;;;;5076579;28;20049;-82
2021/03/28 13:46:14;;;;;;;4.45;1.27;;;14.50;69.80;;;;;;5078388;28;20041;-82
2021/03/28 13:48:44;;;;;;;2.97;1.10;;;14.30;71.30;;;;;;5077580;28;20405;-82
2021/03/28 13:51:13;;;;;;;5.22;1.48;;;14.30;72.10;;;;;;5077215;28;20052;-83
2021/03/28 13:53:41;;;;;;;4.28;1.23;;;14.40;71.30;;;;;;5075187;28;20075;-82
2021/03/28 13:56:10;;;;;;;3.05;1.45;;;14.60;72.40;;;;;;5075091;28;20075;-83
2021/03/28 13:58:47;;;;;;;5.72;1.52;;;15.50;72.00;;;;;;5076182;28;20056;-83
2021/03/28 14:01:27;;;;;;;3.85;1.15;;;15.90;68.50;;;;;;5075792;28;20484;-82
2021/03/28 14:04:15;;;;;;;3.97;1.40;;;16.00;67.00;;;;;;5077572;28;20048;-82
2021/03/28 14:06:42;;;;;;;5.10;1.27;;;15.50;66.80;;;;;;5076342;28;20052;-82
2021/03/28 14:09:13;;;;;;;3.60;1.30;;;15.50;66.80;;;;;;5077813;28;20045;-83
2021/03/28 14:11:48;;;;;;;3.85;1.10;;;15.40;68.30;;;;;;5078825;28;20078;-82